Devizes, United Kingdom
Current Conditions -  °F | °C
As of 4:50 PM on Thursday 27 Nov 2014 (Local Time) from EGDM Reporting Station
Haze Haze  
Wind Chill: 41°   Ceiling: 4500
Heat Index: 46°   Visibility: 4mi
Dew Point: 45°   Wind: 10mph
Humidity: 93%   Direction: 80°E
Pressure: 29.53"   Gusts: NA
Location:  51.35°N, 1.99°W
Report Text: EGDM 271650Z 08009KT 6000 BR FEW018 SCT030 OVC045 08/07 Q1000 WHT
Loading
Personal Weather Stations






























Interactive Weather Map New forecast layout! Learn more

10-Day Weather Forecast

Advertisements
Track Severe Weather on mobile